sensor_id;sensor_type;location;lat;lon;timestamp;temperature;humidity
37268;DHT22;23154;52.542;13.362;2022-07-23T00:02:06;17.70;99.90
37268;DHT22;23154;52.542;13.362;2022-07-23T00:04:32;17.70;99.90
37268;DHT22;23154;52.542;13.362;2022-07-23T00:06:58;17.70;99.90
37268;DHT22;23154;52.542;13.362;2022-07-23T00:09:23;17.70;99.90
37268;DHT22;23154;52.542;13.362;2022-07-23T00:11:49;17.70;99.90
37268;DHT22;23154;52.542;13.362;2022-07-23T00:14:14;17.60;99.90
37268;DHT22;23154;52.542;13.362;2022-07-23T00:16:40;17.50;99.90
37268;DHT22;23154;52.542;13.362;2022-07-23T00:19:05;17.50;99.90
37268;DHT22;23154;52.542;13.362;2022-07-23T00:21:31;17.50;99.90
37268;DHT22;23154;52.542;13.362;2022-07-23T00:23:57;17.50;99.90
37268;DHT22;23154;52.542;13.362;2022-07-23T00:26:22;17.60;99.90
37268;DHT22;23154;52.542;13.362;2022-07-23T00:28:48;17.60;99.90
37268;DHT22;23154;52.542;13.362;2022-07-23T00:31:13;17.60;99.90
37268;DHT22;23154;52.542;13.362;2022-07-23T00:33:39;17.60;99.90
37268;DHT22;23154;52.542;13.362;2022-07-23T00:36:05;17.50;99.90
37268;DHT22;23154;52.542;13.362;2022-07-23T00:38:30;17.50;99.90
37268;DHT22;23154;52.542;13.362;2022-07-23T00:40:56;17.50;99.90
37268;DHT22;23154;52.542;13.362;2022-07-23T00:43:22;17.60;99.90
37268;DHT22;23154;52.542;13.362;2022-07-23T00:45:49;17.50;99.90
37268;DHT22;23154;52.542;13.362;2022-07-23T00:48:14;17.50;99.90
37268;DHT22;23154;52.542;13.362;2022-07-23T00:50:40;17.40;99.90
37268;DHT22;23154;52.542;13.362;2022-07-23T00:53:06;17.30;99.90
37268;DHT22;23154;52.542;13.362;2022-07-23T00:55:33;17.30;99.90
37268;DHT22;23154;52.542;13.362;2022-07-23T00:58:01;17.20;99.90
37268;DHT22;23154;52.542;13.362;2022-07-23T01:00:27;17.10;99.90
37268;DHT22;23154;52.542;13.362;2022-07-23T01:02:53;17.10;99.90
37268;DHT22;23154;52.542;13.362;2022-07-23T01:05:19;17.00;99.90
37268;DHT22;23154;52.542;13.362;2022-07-23T01:07:48;17.00;99.90
37268;DHT22;23154;52.542;13.362;2022-07-23T01:10:14;17.10;99.90
37268;DHT22;23154;52.542;13.362;2022-07-23T01:13:00;17.10;99.90
37268;DHT22;23154;52.542;13.362;2022-07-23T01:15:26;17.00;99.90
37268;DHT22;23154;52.542;13.362;2022-07-23T01:17:52;16.90;99.90
37268;DHT22;23154;52.542;13.362;2022-07-23T01:20:18;16.90;99.90
37268;DHT22;23154;52.542;13.362;2022-07-23T01:22:44;16.90;99.90
37268;DHT22;23154;52.542;13.362;2022-07-23T01:25:10;16.80;99.90
37268;DHT22;23154;52.542;13.362;2022-07-23T01:27:36;16.70;99.90
37268;DHT22;23154;52.542;13.362;2022-07-23T01:30:03;16.70;99.90
37268;DHT22;23154;52.542;13.362;2022-07-23T01:32:28;16.60;99.90
37268;DHT22;23154;52.542;13.362;2022-07-23T01:34:54;16.50;99.90
37268;DHT22;23154;52.542;13.362;2022-07-23T01:37:19;16.50;99.90
37268;DHT22;23154;52.542;13.362;2022-07-23T01:39:45;16.40;99.90
37268;DHT22;23154;52.542;13.362;2022-07-23T01:42:10;16.40;99.90
37268;DHT22;23154;52.542;13.362;2022-07-23T01:44:36;16.40;99.90
37268;DHT22;23154;52.542;13.362;2022-07-23T01:47:02;16.40;99.90
37268;DHT22;23154;52.542;13.362;2022-07-23T01:49:27;16.40;99.90
37268;DHT22;23154;52.542;13.362;2022-07-23T01:51:53;16.40;99.90
37268;DHT22;23154;52.542;13.362;2022-07-23T01:54:29;16.40;99.90
37268;DHT22;23154;52.542;13.362;2022-07-23T01:56:55;16.50;99.90
37268;DHT22;23154;52.542;13.362;2022-07-23T01:59:22;16.40;99.90
37268;DHT22;23154;52.542;13.362;2022-07-23T02:01:48;16.50;99.90
37268;DHT22;23154;52.542;13.362;2022-07-23T02:04:19;16.60;99.90
37268;DHT22;23154;52.542;13.362;2022-07-23T02:06:45;16.60;99.90
37268;DHT22;23154;52.542;13.362;2022-07-23T02:09:11;16.70;99.90
37268;DHT22;23154;52.542;13.362;2022-07-23T02:11:37;16.80;99.90
37268;DHT22;23154;52.542;13.362;2022-07-23T02:14:02;16.80;99.90
37268;DHT22;23154;52.542;13.362;2022-07-23T02:16:28;16.80;99.90
37268;DHT22;23154;52.542;13.362;2022-07-23T02:18:53;16.80;99.90
37268;DHT22;23154;52.542;13.362;2022-07-23T02:21:19;16.90;99.90
37268;DHT22;23154;52.542;13.362;2022-07-23T02:23:44;16.90;99.90
37268;DHT22;23154;52.542;13.362;2022-07-23T02:26:10;16.90;99.90
37268;DHT22;23154;52.542;13.362;2022-07-23T02:28:36;16.90;99.90
37268;DHT22;23154;52.542;13.362;2022-07-23T02:31:01;16.90;99.90
37268;DHT22;23154;52.542;13.362;2022-07-23T02:33:27;16.90;99.90
37268;DHT22;23154;52.542;13.362;2022-07-23T02:35:53;16.90;99.90
37268;DHT22;23154;52.542;13.362;2022-07-23T02:38:18;16.90;99.90
37268;DHT22;23154;52.542;13.362;2022-07-23T02:40:44;16.80;99.90
37268;DHT22;23154;52.542;13.362;2022-07-23T02:43:09;16.80;99.90
37268;DHT22;23154;52.542;13.362;2022-07-23T02:45:35;16.70;99.90
37268;DHT22;23154;52.542;13.362;2022-07-23T02:48:00;16.70;99.90
37268;DHT22;23154;52.542;13.362;2022-07-23T02:50:26;16.60;99.90
37268;DHT22;23154;52.542;13.362;2022-07-23T02:52:51;16.60;99.90
37268;DHT22;23154;52.542;13.362;2022-07-23T02:55:17;16.60;99.90
37268;DHT22;23154;52.542;13.362;2022-07-23T02:57:43;16.50;99.90
37268;DHT22;23154;52.542;13.362;2022-07-23T03:00:09;16.50;99.90
37268;DHT22;23154;52.542;13.362;2022-07-23T03:02:34;16.50;99.90
37268;DHT22;23154;52.542;13.362;2022-07-23T03:05:00;16.50;99.90
37268;DHT22;23154;52.542;13.362;2022-07-23T03:07:26;16.50;99.90
37268;DHT22;23154;52.542;13.362;2022-07-23T03:09:52;16.50;99.90
37268;DHT22;23154;52.542;13.362;2022-07-23T03:12:17;16.60;99.90
37268;DHT22;23154;52.542;13.362;2022-07-23T03:14:43;16.60;99.90
37268;DHT22;23154;52.542;13.362;2022-07-23T03:17:09;16.60;99.90
37268;DHT22;23154;52.542;13.362;2022-07-23T03:19:34;16.60;99.90
37268;DHT22;23154;52.542;13.362;2022-07-23T03:22:00;16.50;99.90
37268;DHT22;23154;52.542;13.362;2022-07-23T03:24:26;16.40;99.90
37268;DHT22;23154;52.542;13.362;2022-07-23T03:27:10;16.40;99.90
37268;DHT22;23154;52.542;13.362;2022-07-23T03:29:36;16.40;99.90
37268;DHT22;23154;52.542;13.362;2022-07-23T03:32:03;16.30;99.90
37268;DHT22;23154;52.542;13.362;2022-07-23T03:34:29;16.30;99.90
37268;DHT22;23154;52.542;13.362;2022-07-23T03:36:54;16.30;99.90
37268;DHT22;23154;52.542;13.362;2022-07-23T03:39:20;16.30;99.90
37268;DHT22;23154;52.542;13.362;2022-07-23T03:41:45;16.30;99.90
37268;DHT22;23154;52.542;13.362;2022-07-23T03:44:11;16.30;99.90
37268;DHT22;23154;52.542;13.362;2022-07-23T03:46:36;16.40;99.90
37268;DHT22;23154;52.542;13.362;2022-07-23T03:49:02;16.50;99.90
37268;DHT22;23154;52.542;13.362;2022-07-23T03:51:27;16.60;99.90
37268;DHT22;23154;52.542;13.362;2022-07-23T03:53:53;16.60;99.90
37268;DHT22;23154;52.542;13.362;2022-07-23T03:56:20;16.60;99.90
37268;DHT22;23154;52.542;13.362;2022-07-23T03:58:45;16.60;99.90
37268;DHT22;23154;52.542;13.362;2022-07-23T04:01:11;16.70;99.90
37268;DHT22;23154;52.542;13.362;2022-07-23T04:03:37;16.60;99.90
37268;DHT22;23154;52.542;13.362;2022-07-23T04:06:05;16.70;99.90
37268;DHT22;23154;52.542;13.362;2022-07-23T04:08:30;16.70;99.90
37268;DHT22;23154;52.542;13.362;2022-07-23T04:10:56;16.70;99.90
37268;DHT22;23154;52.542;13.362;2022-07-23T04:13:22;16.70;99.90
37268;DHT22;23154;52.542;13.362;2022-07-23T04:15:47;16.70;99.90
37268;DHT22;23154;52.542;13.362;2022-07-23T04:18:13;16.70;99.90
37268;DHT22;23154;52.542;13.362;2022-07-23T04:20:39;16.60;99.90
37268;DHT22;23154;52.542;13.362;2022-07-23T04:23:04;16.60;99.90
37268;DHT22;23154;52.542;13.362;2022-07-23T04:25:30;16.60;99.90
37268;DHT22;23154;52.542;13.362;2022-07-23T04:27:55;16.60;99.90
37268;DHT22;23154;52.542;13.362;2022-07-23T04:30:21;16.60;99.90
37268;DHT22;23154;52.542;13.362;2022-07-23T04:32:46;16.70;99.90
37268;DHT22;23154;52.542;13.362;2022-07-23T04:35:12;16.70;99.90
37268;DHT22;23154;52.542;13.362;2022-07-23T04:37:38;16.50;99.90
37268;DHT22;23154;52.542;13.362;2022-07-23T04:40:04;15.10;99.90
37268;DHT22;23154;52.542;13.362;2022-07-23T04:42:29;14.60;99.90
37268;DHT22;23154;52.542;13.362;2022-07-23T04:44:55;14.30;99.90
37268;DHT22;23154;52.542;13.362;2022-07-23T04:47:21;14.20;99.90
37268;DHT22;23154;52.542;13.362;2022-07-23T04:49:47;14.20;99.90
37268;DHT22;23154;52.542;13.362;2022-07-23T04:52:12;14.10;99.90
37268;DHT22;23154;52.542;13.362;2022-07-23T04:54:38;13.90;99.90
37268;DHT22;23154;52.542;13.362;2022-07-23T04:57:03;13.90;99.90
37268;DHT22;23154;52.542;13.362;2022-07-23T04:59:29;13.90;99.90
37268;DHT22;23154;52.542;13.362;2022-07-23T05:01:55;14.00;99.90
37268;DHT22;23154;52.542;13.362;2022-07-23T05:04:20;14.00;99.90
37268;DHT22;23154;52.542;13.362;2022-07-23T05:06:46;13.90;99.90
37268;DHT22;23154;52.542;13.362;2022-07-23T05:09:11;14.00;99.90
37268;DHT22;23154;52.542;13.362;2022-07-23T05:11:37;14.10;99.90
37268;DHT22;23154;52.542;13.362;2022-07-23T05:14:02;14.10;99.90
37268;DHT22;23154;52.542;13.362;2022-07-23T05:16:28;14.10;99.90
37268;DHT22;23154;52.542;13.362;2022-07-23T05:18:53;14.00;99.90
37268;DHT22;23154;52.542;13.362;2022-07-23T05:21:19;14.00;99.90
37268;DHT22;23154;52.542;13.362;2022-07-23T05:23:45;14.10;99.90
37268;DHT22;23154;52.542;13.362;2022-07-23T05:26:10;14.20;99.90
37268;DHT22;23154;52.542;13.362;2022-07-23T05:28:36;14.20;99.90
37268;DHT22;23154;52.542;13.362;2022-07-23T05:31:02;14.40;99.90
37268;DHT22;23154;52.542;13.362;2022-07-23T05:33:29;14.40;99.90
37268;DHT22;23154;52.542;13.362;2022-07-23T05:36:03;14.30;99.90
37268;DHT22;23154;52.542;13.362;2022-07-23T05:38:30;14.30;99.90
37268;DHT22;23154;52.542;13.362;2022-07-23T05:40:56;14.40;99.90
37268;DHT22;23154;52.542;13.362;2022-07-23T05:43:21;14.60;99.90
37268;DHT22;23154;52.542;13.362;2022-07-23T05:45:47;14.60;99.90
37268;DHT22;23154;52.542;13.362;2022-07-23T05:48:12;14.60;99.90
37268;DHT22;23154;52.542;13.362;2022-07-23T05:50:38;14.70;99.90
37268;DHT22;23154;52.542;13.362;2022-07-23T05:53:03;14.70;99.90
37268;DHT22;23154;52.542;13.362;2022-07-23T05:55:29;14.60;99.90
37268;DHT22;23154;52.542;13.362;2022-07-23T05:57:57;14.60;99.90
37268;DHT22;23154;52.542;13.362;2022-07-23T06:00:23;14.60;99.90
37268;DHT22;23154;52.542;13.362;2022-07-23T06:02:49;14.60;99.90
37268;DHT22;23154;52.542;13.362;2022-07-23T06:05:14;14.30;99.90
37268;DHT22;23154;52.542;13.362;2022-07-23T06:07:40;14.60;99.90
37268;DHT22;23154;52.542;13.362;2022-07-23T06:10:06;14.70;99.90
37268;DHT22;23154;52.542;13.362;2022-07-23T06:12:32;14.60;99.90
37268;DHT22;23154;52.542;13.362;2022-07-23T06:14:57;14.80;99.90
37268;DHT22;23154;52.542;13.362;2022-07-23T06:17:23;14.70;99.90
37268;DHT22;23154;52.542;13.362;2022-07-23T06:19:49;14.60;99.90
37268;DHT22;23154;52.542;13.362;2022-07-23T06:22:14;14.50;99.90
37268;DHT22;23154;52.542;13.362;2022-07-23T06:24:40;14.60;99.90
37268;DHT22;23154;52.542;13.362;2022-07-23T06:27:05;14.70;99.90
37268;DHT22;23154;52.542;13.362;2022-07-23T06:29:31;14.80;99.90
37268;DHT22;23154;52.542;13.362;2022-07-23T06:31:57;14.90;99.90
37268;DHT22;23154;52.542;13.362;2022-07-23T06:34:22;15.00;99.90
37268;DHT22;23154;52.542;13.362;2022-07-23T06:36:48;15.20;99.90
37268;DHT22;23154;52.542;13.362;2022-07-23T06:39:13;15.50;99.90
37268;DHT22;23154;52.542;13.362;2022-07-23T06:41:39;15.50;99.90
37268;DHT22;23154;52.542;13.362;2022-07-23T06:44:05;15.40;99.90
37268;DHT22;23154;52.542;13.362;2022-07-23T06:46:30;15.40;99.90
37268;DHT22;23154;52.542;13.362;2022-07-23T06:48:56;15.50;99.90
37268;DHT22;23154;52.542;13.362;2022-07-23T06:51:22;15.40;99.90
37268;DHT22;23154;52.542;13.362;2022-07-23T06:53:48;15.30;99.90
37268;DHT22;23154;52.542;13.362;2022-07-23T06:56:13;15.30;99.90
37268;DHT22;23154;52.542;13.362;2022-07-23T06:58:39;15.20;99.90
37268;DHT22;23154;52.542;13.362;2022-07-23T07:01:04;15.20;99.90
37268;DHT22;23154;52.542;13.362;2022-07-23T07:03:30;15.30;99.90
37268;DHT22;23154;52.542;13.362;2022-07-23T07:05:56;15.40;99.90
37268;DHT22;23154;52.542;13.362;2022-07-23T07:08:23;15.30;99.90
37268;DHT22;23154;52.542;13.362;2022-07-23T07:10:49;15.40;99.90
37268;DHT22;23154;52.542;13.362;2022-07-23T07:13:14;15.60;99.90
37268;DHT22;23154;52.542;13.362;2022-07-23T07:15:40;15.80;99.90
37268;DHT22;23154;52.542;13.362;2022-07-23T07:18:06;15.80;99.90
37268;DHT22;23154;52.542;13.362;2022-07-23T07:20:31;15.90;99.90
37268;DHT22;23154;52.542;13.362;2022-07-23T07:22:57;16.00;99.90
37268;DHT22;23154;52.542;13.362;2022-07-23T07:25:22;16.10;99.90
37268;DHT22;23154;52.542;13.362;2022-07-23T07:27:48;16.20;99.90
37268;DHT22;23154;52.542;13.362;2022-07-23T07:30:14;16.40;99.90
37268;DHT22;23154;52.542;13.362;2022-07-23T07:32:40;16.50;99.90
37268;DHT22;23154;52.542;13.362;2022-07-23T07:35:07;16.60;99.90
37268;DHT22;23154;52.542;13.362;2022-07-23T07:37:32;16.70;99.90
37268;DHT22;23154;52.542;13.362;2022-07-23T07:39:58;16.90;99.90
37268;DHT22;23154;52.542;13.362;2022-07-23T07:42:24;16.70;99.90
37268;DHT22;23154;52.542;13.362;2022-07-23T07:44:50;16.80;99.90
37268;DHT22;23154;52.542;13.362;2022-07-23T07:47:15;17.00;99.90
37268;DHT22;23154;52.542;13.362;2022-07-23T07:49:44;17.20;99.90
37268;DHT22;23154;52.542;13.362;2022-07-23T07:52:10;17.30;99.90
37268;DHT22;23154;52.542;13.362;2022-07-23T07:54:37;17.30;99.90
37268;DHT22;23154;52.542;13.362;2022-07-23T07:57:04;17.10;99.90
37268;DHT22;23154;52.542;13.362;2022-07-23T07:59:30;16.90;99.90
37268;DHT22;23154;52.542;13.362;2022-07-23T08:01:56;17.10;99.90
37268;DHT22;23154;52.542;13.362;2022-07-23T08:04:21;17.20;99.90
37268;DHT22;23154;52.542;13.362;2022-07-23T08:06:47;17.30;99.90
37268;DHT22;23154;52.542;13.362;2022-07-23T08:09:13;17.30;99.90
37268;DHT22;23154;52.542;13.362;2022-07-23T08:11:39;17.30;99.90
37268;DHT22;23154;52.542;13.362;2022-07-23T08:14:05;17.50;99.90
37268;DHT22;23154;52.542;13.362;2022-07-23T08:16:31;17.60;99.90
37268;DHT22;23154;52.542;13.362;2022-07-23T08:18:58;17.70;99.90
37268;DHT22;23154;52.542;13.362;2022-07-23T08:21:24;17.60;99.90
37268;DHT22;23154;52.542;13.362;2022-07-23T08:23:51;17.70;99.90
37268;DHT22;23154;52.542;13.362;2022-07-23T08:26:17;17.80;99.90
37268;DHT22;23154;52.542;13.362;2022-07-23T08:28:43;17.90;99.90
37268;DHT22;23154;52.542;13.362;2022-07-23T08:31:09;18.00;99.90
37268;DHT22;23154;52.542;13.362;2022-07-23T08:33:38;17.90;99.90
37268;DHT22;23154;52.542;13.362;2022-07-23T08:36:09;18.00;99.90
37268;DHT22;23154;52.542;13.362;2022-07-23T08:38:36;18.10;99.90
37268;DHT22;23154;52.542;13.362;2022-07-23T08:41:02;18.10;99.90
37268;DHT22;23154;52.542;13.362;2022-07-23T08:43:32;18.20;99.90
37268;DHT22;23154;52.542;13.362;2022-07-23T08:46:00;18.20;99.90
37268;DHT22;23154;52.542;13.362;2022-07-23T08:48:30;18.20;99.90
37268;DHT22;23154;52.542;13.362;2022-07-23T08:50:58;18.40;99.90
37268;DHT22;23154;52.542;13.362;2022-07-23T08:53:26;18.50;99.90
37268;DHT22;23154;52.542;13.362;2022-07-23T08:55:55;18.70;99.90
37268;DHT22;23154;52.542;13.362;2022-07-23T08:58:22;18.90;99.90
37268;DHT22;23154;52.542;13.362;2022-07-23T09:00:49;18.90;99.90
37268;DHT22;23154;52.542;13.362;2022-07-23T09:03:21;19.20;99.90
37268;DHT22;23154;52.542;13.362;2022-07-23T09:05:50;19.30;99.90
37268;DHT22;23154;52.542;13.362;2022-07-23T09:08:20;19.10;99.90
37268;DHT22;23154;52.542;13.362;2022-07-23T09:10:55;19.10;99.90
37268;DHT22;23154;52.542;13.362;2022-07-23T09:13:39;19.40;99.90
37268;DHT22;23154;52.542;13.362;2022-07-23T09:18:36;19.50;99.90
37268;DHT22;23154;52.542;13.362;2022-07-23T09:23:37;20.00;99.90
37268;DHT22;23154;52.542;13.362;2022-07-23T09:26:19;20.20;99.90
37268;DHT22;23154;52.542;13.362;2022-07-23T09:29:16;20.30;99.90
37268;DHT22;23154;52.542;13.362;2022-07-23T09:31:57;20.50;99.90
37268;DHT22;23154;52.542;13.362;2022-07-23T09:34:49;20.60;99.90
37268;DHT22;23154;52.542;13.362;2022-07-23T09:37:17;20.80;99.90
37268;DHT22;23154;52.542;13.362;2022-07-23T09:39:45;21.10;99.90
37268;DHT22;23154;52.542;13.362;2022-07-23T09:42:23;21.20;99.90
37268;DHT22;23154;52.542;13.362;2022-07-23T09:44:53;21.30;99.90
37268;DHT22;23154;52.542;13.362;2022-07-23T09:47:21;21.20;99.90
37268;DHT22;23154;52.542;13.362;2022-07-23T09:52:27;21.10;99.90
37268;DHT22;23154;52.542;13.362;2022-07-23T09:55:01;21.10;99.90
37268;DHT22;23154;52.542;13.362;2022-07-23T09:57:27;20.80;99.90
37268;DHT22;23154;52.542;13.362;2022-07-23T09:59:57;20.80;99.90
37268;DHT22;23154;52.542;13.362;2022-07-23T10:02:24;20.60;99.90
37268;DHT22;23154;52.542;13.362;2022-07-23T10:04:54;20.50;99.90
37268;DHT22;23154;52.542;13.362;2022-07-23T10:07:23;20.70;99.90
37268;DHT22;23154;52.542;13.362;2022-07-23T10:09:52;21.00;99.90
37268;DHT22;23154;52.542;13.362;2022-07-23T10:12:19;21.10;99.90
37268;DHT22;23154;52.542;13.362;2022-07-23T10:15:01;21.20;99.90
37268;DHT22;23154;52.542;13.362;2022-07-23T10:17:30;21.40;99.90
37268;DHT22;23154;52.542;13.362;2022-07-23T10:19:56;21.30;99.90
37268;DHT22;23154;52.542;13.362;2022-07-23T10:22:30;21.20;99.90
37268;DHT22;23154;52.542;13.362;2022-07-23T10:25:26;21.10;99.90
37268;DHT22;23154;52.542;13.362;2022-07-23T10:28:15;21.10;99.90
37268;DHT22;23154;52.542;13.362;2022-07-23T10:31:25;21.20;99.90
37268;DHT22;23154;52.542;13.362;2022-07-23T10:33:57;21.20;99.90
37268;DHT22;23154;52.542;13.362;2022-07-23T10:36:42;21.00;99.90
37268;DHT22;23154;52.542;13.362;2022-07-23T10:39:28;21.00;99.90
37268;DHT22;23154;52.542;13.362;2022-07-23T10:42:08;20.90;99.90
37268;DHT22;23154;52.542;13.362;2022-07-23T10:44:45;21.00;99.90
37268;DHT22;23154;52.542;13.362;2022-07-23T10:47:25;21.40;99.90
37268;DHT22;23154;52.542;13.362;2022-07-23T10:50:26;21.70;99.90
37268;DHT22;23154;52.542;13.362;2022-07-23T10:53:20;21.80;99.90
37268;DHT22;23154;52.542;13.362;2022-07-23T10:55:49;21.90;99.90
37268;DHT22;23154;52.542;13.362;2022-07-23T10:58:47;22.10;99.90
37268;DHT22;23154;52.542;13.362;2022-07-23T11:01:33;22.60;99.90
37268;DHT22;23154;52.542;13.362;2022-07-23T11:03:59;22.80;99.90
37268;DHT22;23154;52.542;13.362;2022-07-23T11:09:39;22.80;99.90
37268;DHT22;23154;52.542;13.362;2022-07-23T11:15:09;23.00;99.90
37268;DHT22;23154;52.542;13.362;2022-07-23T11:17:39;22.90;99.90
37268;DHT22;23154;52.542;13.362;2022-07-23T11:22:39;22.50;99.90
37268;DHT22;23154;52.542;13.362;2022-07-23T11:25:05;22.50;99.90
37268;DHT22;23154;52.542;13.362;2022-07-23T11:27:41;22.60;99.90
37268;DHT22;23154;52.542;13.362;2022-07-23T11:30:08;22.80;99.90
37268;DHT22;23154;52.542;13.362;2022-07-23T11:32:40;22.90;99.90
37268;DHT22;23154;52.542;13.362;2022-07-23T11:35:26;22.90;99.90
37268;DHT22;23154;52.542;13.362;2022-07-23T11:38:02;23.30;99.90
37268;DHT22;23154;52.542;13.362;2022-07-23T11:40:29;23.50;99.90
37268;DHT22;23154;52.542;13.362;2022-07-23T11:43:06;23.40;99.90
37268;DHT22;23154;52.542;13.362;2022-07-23T11:48:03;23.60;99.90
37268;DHT22;23154;52.542;13.362;2022-07-23T11:50:31;23.80;99.90
37268;DHT22;23154;52.542;13.362;2022-07-23T11:52:57;23.80;99.90
37268;DHT22;23154;52.542;13.362;2022-07-23T11:55:23;23.90;99.90
37268;DHT22;23154;52.542;13.362;2022-07-23T11:57:51;24.00;99.90
37268;DHT22;23154;52.542;13.362;2022-07-23T12:00:21;24.20;99.90
37268;DHT22;23154;52.542;13.362;2022-07-23T12:02:53;24.10;99.90
37268;DHT22;23154;52.542;13.362;2022-07-23T12:05:30;24.30;99.90
37268;DHT22;23154;52.542;13.362;2022-07-23T12:07:57;24.40;99.90
37268;DHT22;23154;52.542;13.362;2022-07-23T12:10:27;24.70;99.20
37268;DHT22;23154;52.542;13.362;2022-07-23T12:12:56;24.90;98.80
37268;DHT22;23154;52.542;13.362;2022-07-23T12:15:24;24.80;98.50
37268;DHT22;23154;52.542;13.362;2022-07-23T12:17:52;24.70;98.10
37268;DHT22;23154;52.542;13.362;2022-07-23T12:20:23;24.40;98.30
37268;DHT22;23154;52.542;13.362;2022-07-23T12:22:51;24.90;97.90
37268;DHT22;23154;52.542;13.362;2022-07-23T12:25:19;24.80;97.00
37268;DHT22;23154;52.542;13.362;2022-07-23T12:27:45;24.60;96.50
37268;DHT22;23154;52.542;13.362;2022-07-23T12:30:25;24.30;97.60
37268;DHT22;23154;52.542;13.362;2022-07-23T12:32:54;23.80;98.30
37268;DHT22;23154;52.542;13.362;2022-07-23T12:35:22;24.20;97.90
37268;DHT22;23154;52.542;13.362;2022-07-23T12:37:50;24.30;97.30
37268;DHT22;23154;52.542;13.362;2022-07-23T12:40:45;24.50;96.80
37268;DHT22;23154;52.542;13.362;2022-07-23T12:43:33;24.40;96.80
37268;DHT22;23154;52.542;13.362;2022-07-23T12:46:16;24.50;97.30
37268;DHT22;23154;52.542;13.362;2022-07-23T12:51:17;24.80;95.50
37268;DHT22;23154;52.542;13.362;2022-07-23T12:53:44;25.00;95.20
37268;DHT22;23154;52.542;13.362;2022-07-23T12:56:13;24.60;95.00
37268;DHT22;23154;52.542;13.362;2022-07-23T13:06:21;24.30;95.90
37268;DHT22;23154;52.542;13.362;2022-07-23T13:08:47;24.20;96.30
37268;DHT22;23154;52.542;13.362;2022-07-23T13:11:13;24.20;96.80
37268;DHT22;23154;52.542;13.362;2022-07-23T13:13:38;24.40;95.80
37268;DHT22;23154;52.542;13.362;2022-07-23T13:16:04;24.60;95.80
37268;DHT22;23154;52.542;13.362;2022-07-23T13:18:30;24.80;94.70
37268;DHT22;23154;52.542;13.362;2022-07-23T13:20:57;25.20;94.30
37268;DHT22;23154;52.542;13.362;2022-07-23T13:23:23;25.40;93.30
37268;DHT22;23154;52.542;13.362;2022-07-23T13:25:49;25.40;93.00
37268;DHT22;23154;52.542;13.362;2022-07-23T13:28:16;25.20;93.00
37268;DHT22;23154;52.542;13.362;2022-07-23T13:30:43;25.30;93.00
37268;DHT22;23154;52.542;13.362;2022-07-23T13:33:09;25.60;92.10
37268;DHT22;23154;52.542;13.362;2022-07-23T13:35:37;25.80;91.90
37268;DHT22;23154;52.542;13.362;2022-07-23T13:38:04;25.50;91.00
37268;DHT22;23154;52.542;13.362;2022-07-23T13:40:37;25.20;91.70
37268;DHT22;23154;52.542;13.362;2022-07-23T13:43:06;25.20;92.00
37268;DHT22;23154;52.542;13.362;2022-07-23T13:45:35;25.30;91.80
37268;DHT22;23154;52.542;13.362;2022-07-23T13:48:01;25.60;91.40
37268;DHT22;23154;52.542;13.362;2022-07-23T13:50:29;25.30;91.10
37268;DHT22;23154;52.542;13.362;2022-07-23T13:52:54;25.10;91.70
37268;DHT22;23154;52.542;13.362;2022-07-23T13:55:20;25.20;91.80
37268;DHT22;23154;52.542;13.362;2022-07-23T13:57:46;25.20;91.80
37268;DHT22;23154;52.542;13.362;2022-07-23T14:00:13;24.90;92.50
37268;DHT22;23154;52.542;13.362;2022-07-23T14:02:40;25.40;91.30
37268;DHT22;23154;52.542;13.362;2022-07-23T14:05:08;25.80;90.70
37268;DHT22;23154;52.542;13.362;2022-07-23T14:07:36;26.00;89.90
37268;DHT22;23154;52.542;13.362;2022-07-23T14:10:04;26.10;89.20
37268;DHT22;23154;52.542;13.362;2022-07-23T14:12:31;25.70;90.20
37268;DHT22;23154;52.542;13.362;2022-07-23T14:14:57;25.60;90.10
37268;DHT22;23154;52.542;13.362;2022-07-23T14:17:23;26.40;87.40
37268;DHT22;23154;52.542;13.362;2022-07-23T14:19:50;26.10;87.40
37268;DHT22;23154;52.542;13.362;2022-07-23T14:22:17;25.70;88.50
37268;DHT22;23154;52.542;13.362;2022-07-23T14:24:43;25.50;88.70
37268;DHT22;23154;52.542;13.362;2022-07-23T14:27:10;25.40;89.50
37268;DHT22;23154;52.542;13.362;2022-07-23T14:29:36;25.40;89.80
37268;DHT22;23154;52.542;13.362;2022-07-23T14:32:03;25.50;88.80
37268;DHT22;23154;52.542;13.362;2022-07-23T14:34:29;25.60;86.80
37268;DHT22;23154;52.542;13.362;2022-07-23T14:36:55;25.90;86.40
37268;DHT22;23154;52.542;13.362;2022-07-23T14:39:20;26.00;85.40
37268;DHT22;23154;52.542;13.362;2022-07-23T14:41:47;26.10;84.60
37268;DHT22;23154;52.542;13.362;2022-07-23T14:44:13;25.80;85.20
37268;DHT22;23154;52.542;13.362;2022-07-23T14:46:38;25.50;85.10
37268;DHT22;23154;52.542;13.362;2022-07-23T14:49:04;25.10;86.40
37268;DHT22;23154;52.542;13.362;2022-07-23T14:51:30;25.70;84.90
37268;DHT22;23154;52.542;13.362;2022-07-23T14:53:56;26.50;83.00
37268;DHT22;23154;52.542;13.362;2022-07-23T14:56:22;26.90;80.20
37268;DHT22;23154;52.542;13.362;2022-07-23T14:58:47;26.90;80.00
37268;DHT22;23154;52.542;13.362;2022-07-23T15:01:13;25.80;82.50
37268;DHT22;23154;52.542;13.362;2022-07-23T15:03:39;25.00;84.20
37268;DHT22;23154;52.542;13.362;2022-07-23T15:06:05;24.60;86.80
37268;DHT22;23154;52.542;13.362;2022-07-23T15:08:30;24.60;88.40
37268;DHT22;23154;52.542;13.362;2022-07-23T15:10:56;24.70;86.80
37268;DHT22;23154;52.542;13.362;2022-07-23T15:13:22;24.80;86.20
37268;DHT22;23154;52.542;13.362;2022-07-23T15:15:49;25.50;83.70
37268;DHT22;23154;52.542;13.362;2022-07-23T15:18:15;26.60;81.20
37268;DHT22;23154;52.542;13.362;2022-07-23T15:20:41;27.30;78.60
37268;DHT22;23154;52.542;13.362;2022-07-23T15:23:08;27.60;77.10
37268;DHT22;23154;52.542;13.362;2022-07-23T15:25:36;28.60;75.50
37268;DHT22;23154;52.542;13.362;2022-07-23T15:28:03;28.40;72.70
37268;DHT22;23154;52.542;13.362;2022-07-23T15:30:29;28.30;72.50
37268;DHT22;23154;52.542;13.362;2022-07-23T15:32:56;28.30;72.50
37268;DHT22;23154;52.542;13.362;2022-07-23T15:35:23;29.10;70.60
37268;DHT22;23154;52.542;13.362;2022-07-23T15:37:48;29.60;66.10
37268;DHT22;23154;52.542;13.362;2022-07-23T15:40:14;28.60;67.80
37268;DHT22;23154;52.542;13.362;2022-07-23T15:42:40;27.40;71.10
37268;DHT22;23154;52.542;13.362;2022-07-23T15:45:06;26.70;72.90
37268;DHT22;23154;52.542;13.362;2022-07-23T15:47:32;25.80;76.00
37268;DHT22;23154;52.542;13.362;2022-07-23T15:49:57;25.50;77.50